sensor_id;sensor_type;location;lat;lon;timestamp;P1;durP1;ratioP1;P2;durP2;ratioP2
78372;SDS011;67656;52.074;4.758;2023-03-09T00:04:37;16.63;;;5.30;;
78372;SDS011;67656;52.074;4.758;2023-03-09T00:09:37;18.20;;;5.40;;
78372;SDS011;67656;52.074;4.758;2023-03-09T00:14:38;18.02;;;5.70;;
78372;SDS011;67656;52.074;4.758;2023-03-09T00:19:38;17.00;;;5.82;;
78372;SDS011;67656;52.074;4.758;2023-03-09T00:24:38;14.93;;;5.88;;
78372;SDS011;67656;52.074;4.758;2023-03-09T00:29:38;17.13;;;5.30;;
78372;SDS011;67656;52.074;4.758;2023-03-09T00:34:39;20.92;;;6.40;;
78372;SDS011;67656;52.074;4.758;2023-03-09T00:39:39;20.27;;;6.07;;
78372;SDS011;67656;52.074;4.758;2023-03-09T00:44:40;20.87;;;7.80;;
78372;SDS011;67656;52.074;4.758;2023-03-09T00:49:41;22.90;;;7.03;;
78372;SDS011;67656;52.074;4.758;2023-03-09T00:54:41;23.60;;;7.35;;
78372;SDS011;67656;52.074;4.758;2023-03-09T00:59:44;19.25;;;7.30;;
78372;SDS011;67656;52.074;4.758;2023-03-09T01:04:45;17.90;;;5.70;;
78372;SDS011;67656;52.074;4.758;2023-03-09T01:09:45;16.87;;;5.17;;
78372;SDS011;67656;52.074;4.758;2023-03-09T01:14:46;12.90;;;4.47;;
78372;SDS011;67656;52.074;4.758;2023-03-09T01:19:46;11.57;;;4.13;;
78372;SDS011;67656;52.074;4.758;2023-03-09T01:24:46;14.33;;;4.90;;
78372;SDS011;67656;52.074;4.758;2023-03-09T01:29:47;14.18;;;5.05;;
78372;SDS011;67656;52.074;4.758;2023-03-09T01:34:48;15.30;;;4.50;;
78372;SDS011;67656;52.074;4.758;2023-03-09T01:39:48;10.40;;;4.20;;
78372;SDS011;67656;52.074;4.758;2023-03-09T01:50:29;14.40;;;4.80;;
78372;SDS011;67656;52.074;4.758;2023-03-09T02:00:36;9.43;;;4.10;;
78372;SDS011;67656;52.074;4.758;2023-03-09T02:11:06;11.77;;;4.20;;
78372;SDS011;67656;52.074;4.758;2023-03-09T02:16:11;10.63;;;4.30;;
78372;SDS011;67656;52.074;4.758;2023-03-09T02:21:31;11.83;;;4.43;;
78372;SDS011;67656;52.074;4.758;2023-03-09T02:26:35;10.80;;;4.63;;
78372;SDS011;67656;52.074;4.758;2023-03-09T02:31:41;11.07;;;4.13;;
78372;SDS011;67656;52.074;4.758;2023-03-09T02:36:43;14.10;;;4.00;;
78372;SDS011;67656;52.074;4.758;2023-03-09T02:41:44;13.60;;;4.97;;
78372;SDS011;67656;52.074;4.758;2023-03-09T02:46:48;10.97;;;4.23;;
78372;SDS011;67656;52.074;4.758;2023-03-09T02:51:48;11.37;;;4.20;;
78372;SDS011;67656;52.074;4.758;2023-03-09T02:56:49;9.93;;;3.50;;
78372;SDS011;67656;52.074;4.758;2023-03-09T03:01:50;11.57;;;4.27;;
78372;SDS011;67656;52.074;4.758;2023-03-09T03:06:51;12.80;;;4.80;;
78372;SDS011;67656;52.074;4.758;2023-03-09T03:11:53;12.70;;;4.23;;
78372;SDS011;67656;52.074;4.758;2023-03-09T03:16:53;10.50;;;3.53;;
78372;SDS011;67656;52.074;4.758;2023-03-09T03:21:54;14.60;;;4.50;;
78372;SDS011;67656;52.074;4.758;2023-03-09T03:26:55;14.00;;;4.10;;
78372;SDS011;67656;52.074;4.758;2023-03-09T03:31:57;17.60;;;4.00;;
78372;SDS011;67656;52.074;4.758;2023-03-09T03:37:00;12.13;;;4.67;;
78372;SDS011;67656;52.074;4.758;2023-03-09T03:42:02;13.23;;;4.00;;
78372;SDS011;67656;52.074;4.758;2023-03-09T03:47:03;11.63;;;3.80;;
78372;SDS011;67656;52.074;4.758;2023-03-09T03:52:04;11.37;;;4.30;;
78372;SDS011;67656;52.074;4.758;2023-03-09T03:57:04;12.53;;;3.63;;
78372;SDS011;67656;52.074;4.758;2023-03-09T04:02:06;12.60;;;4.57;;
78372;SDS011;67656;52.074;4.758;2023-03-09T04:07:07;12.67;;;4.00;;
78372;SDS011;67656;52.074;4.758;2023-03-09T04:12:07;9.60;;;3.90;;
78372;SDS011;67656;52.074;4.758;2023-03-09T04:17:09;13.43;;;3.97;;
78372;SDS011;67656;52.074;4.758;2023-03-09T04:22:10;9.63;;;4.03;;
78372;SDS011;67656;52.074;4.758;2023-03-09T04:27:10;13.27;;;3.80;;
78372;SDS011;67656;52.074;4.758;2023-03-09T04:32:23;12.43;;;3.90;;
78372;SDS011;67656;52.074;4.758;2023-03-09T04:37:29;9.37;;;2.97;;
78372;SDS011;67656;52.074;4.758;2023-03-09T04:42:31;9.47;;;3.77;;
78372;SDS011;67656;52.074;4.758;2023-03-09T04:47:32;12.03;;;3.63;;
78372;SDS011;67656;52.074;4.758;2023-03-09T04:52:33;10.70;;;3.87;;
78372;SDS011;67656;52.074;4.758;2023-03-09T04:57:34;12.93;;;4.70;;
78372;SDS011;67656;52.074;4.758;2023-03-09T05:02:35;13.03;;;4.33;;
78372;SDS011;67656;52.074;4.758;2023-03-09T05:07:36;16.47;;;5.57;;
78372;SDS011;67656;52.074;4.758;2023-03-09T05:12:39;13.70;;;4.73;;
78372;SDS011;67656;52.074;4.758;2023-03-09T05:17:44;15.63;;;4.73;;
78372;SDS011;67656;52.074;4.758;2023-03-09T05:22:46;17.10;;;5.80;;
78372;SDS011;67656;52.074;4.758;2023-03-09T05:27:48;16.03;;;6.17;;
78372;SDS011;67656;52.074;4.758;2023-03-09T05:32:49;15.10;;;4.70;;
78372;SDS011;67656;52.074;4.758;2023-03-09T05:37:51;17.67;;;6.37;;
78372;SDS011;67656;52.074;4.758;2023-03-09T05:42:55;19.00;;;5.68;;
78372;SDS011;67656;52.074;4.758;2023-03-09T05:47:55;18.40;;;5.67;;
78372;SDS011;67656;52.074;4.758;2023-03-09T05:52:56;13.83;;;5.20;;
78372;SDS011;67656;52.074;4.758;2023-03-09T05:57:57;19.80;;;5.97;;
78372;SDS011;67656;52.074;4.758;2023-03-09T06:02:58;18.43;;;6.33;;
78372;SDS011;67656;52.074;4.758;2023-03-09T06:08:10;19.13;;;6.07;;
78372;SDS011;67656;52.074;4.758;2023-03-09T06:13:11;20.00;;;6.03;;
78372;SDS011;67656;52.074;4.758;2023-03-09T06:18:12;20.13;;;6.23;;
78372;SDS011;67656;52.074;4.758;2023-03-09T06:23:12;20.13;;;7.10;;
78372;SDS011;67656;52.074;4.758;2023-03-09T06:28:13;16.10;;;5.20;;
78372;SDS011;67656;52.074;4.758;2023-03-09T06:33:15;18.13;;;5.63;;
78372;SDS011;67656;52.074;4.758;2023-03-09T06:38:22;16.83;;;5.97;;
78372;SDS011;67656;52.074;4.758;2023-03-09T06:43:30;16.77;;;5.83;;
78372;SDS011;67656;52.074;4.758;2023-03-09T06:48:30;19.13;;;6.10;;
78372;SDS011;67656;52.074;4.758;2023-03-09T06:59:09;15.90;;;5.87;;
78372;SDS011;67656;52.074;4.758;2023-03-09T07:04:36;21.67;;;7.07;;
78372;SDS011;67656;52.074;4.758;2023-03-09T07:09:37;24.58;;;8.23;;
78372;SDS011;67656;52.074;4.758;2023-03-09T07:14:37;17.47;;;5.70;;
78372;SDS011;67656;52.074;4.758;2023-03-09T07:19:38;20.83;;;6.40;;
78372;SDS011;67656;52.074;4.758;2023-03-09T07:24:38;20.77;;;6.50;;
78372;SDS011;67656;52.074;4.758;2023-03-09T07:29:38;20.43;;;6.90;;
78372;SDS011;67656;52.074;4.758;2023-03-09T07:34:39;20.03;;;6.73;;
78372;SDS011;67656;52.074;4.758;2023-03-09T07:39:39;20.63;;;6.73;;
78372;SDS011;67656;52.074;4.758;2023-03-09T07:44:39;23.60;;;7.25;;
78372;SDS011;67656;52.074;4.758;2023-03-09T07:49:40;22.73;;;6.72;;
78372;SDS011;67656;52.074;4.758;2023-03-09T07:54:40;22.90;;;6.97;;
78372;SDS011;67656;52.074;4.758;2023-03-09T07:59:40;18.57;;;6.20;;
78372;SDS011;67656;52.074;4.758;2023-03-09T08:04:41;15.80;;;5.67;;
78372;SDS011;67656;52.074;4.758;2023-03-09T08:09:41;19.50;;;6.13;;
78372;SDS011;67656;52.074;4.758;2023-03-09T08:14:41;19.77;;;6.20;;
78372;SDS011;67656;52.074;4.758;2023-03-09T08:19:42;21.87;;;7.33;;
78372;SDS011;67656;52.074;4.758;2023-03-09T08:24:42;15.93;;;6.07;;
78372;SDS011;67656;52.074;4.758;2023-03-09T08:29:42;16.53;;;6.07;;
78372;SDS011;67656;52.074;4.758;2023-03-09T08:34:43;20.53;;;6.40;;
78372;SDS011;67656;52.074;4.758;2023-03-09T08:39:43;21.47;;;7.03;;
78372;SDS011;67656;52.074;4.758;2023-03-09T08:44:43;20.90;;;6.75;;
78372;SDS011;67656;52.074;4.758;2023-03-09T08:49:46;20.60;;;6.13;;
78372;SDS011;67656;52.074;4.758;2023-03-09T08:54:47;18.53;;;6.23;;
78372;SDS011;67656;52.074;4.758;2023-03-09T08:59:47;21.50;;;6.73;;
78372;SDS011;67656;52.074;4.758;2023-03-09T09:04:47;17.83;;;5.82;;
78372;SDS011;67656;52.074;4.758;2023-03-09T09:09:48;18.53;;;6.43;;
78372;SDS011;67656;52.074;4.758;2023-03-09T09:14:48;18.22;;;5.94;;
78372;SDS011;67656;52.074;4.758;2023-03-09T09:19:49;23.30;;;7.30;;
78372;SDS011;67656;52.074;4.758;2023-03-09T09:24:49;20.80;;;6.93;;
78372;SDS011;67656;52.074;4.758;2023-03-09T09:29:50;19.60;;;6.53;;
78372;SDS011;67656;52.074;4.758;2023-03-09T09:34:50;20.50;;;6.54;;
78372;SDS011;67656;52.074;4.758;2023-03-09T09:39:51;17.30;;;5.90;;
78372;SDS011;67656;52.074;4.758;2023-03-09T09:44:52;21.70;;;6.57;;
78372;SDS011;67656;52.074;4.758;2023-03-09T09:49:54;20.57;;;6.97;;
78372;SDS011;67656;52.074;4.758;2023-03-09T10:00:29;18.17;;;6.37;;
78372;SDS011;67656;52.074;4.758;2023-03-09T10:05:48;17.80;;;6.47;;
78372;SDS011;67656;52.074;4.758;2023-03-09T10:10:54;19.10;;;7.27;;
78372;SDS011;67656;52.074;4.758;2023-03-09T10:16:05;19.77;;;6.67;;
78372;SDS011;67656;52.074;4.758;2023-03-09T10:21:32;19.80;;;6.43;;
78372;SDS011;67656;52.074;4.758;2023-03-09T10:26:50;22.27;;;7.33;;
78372;SDS011;67656;52.074;4.758;2023-03-09T10:32:12;18.60;;;6.77;;
78372;SDS011;67656;52.074;4.758;2023-03-09T10:37:21;23.53;;;7.30;;
78372;SDS011;67656;52.074;4.758;2023-03-09T10:42:24;22.38;;;7.95;;
78372;SDS011;67656;52.074;4.758;2023-03-09T10:47:26;20.97;;;6.77;;
78372;SDS011;67656;52.074;4.758;2023-03-09T10:52:49;21.73;;;7.33;;
78372;SDS011;67656;52.074;4.758;2023-03-09T10:57:57;22.23;;;7.53;;
78372;SDS011;67656;52.074;4.758;2023-03-09T11:02:59;21.57;;;6.60;;
78372;SDS011;67656;52.074;4.758;2023-03-09T11:08:00;19.60;;;6.80;;
78372;SDS011;67656;52.074;4.758;2023-03-09T11:13:01;23.40;;;7.50;;
78372;SDS011;67656;52.074;4.758;2023-03-09T11:18:08;18.20;;;6.57;;
78372;SDS011;67656;52.074;4.758;2023-03-09T11:23:41;25.20;;;7.00;;
78372;SDS011;67656;52.074;4.758;2023-03-09T11:28:47;20.93;;;7.03;;
78372;SDS011;67656;52.074;4.758;2023-03-09T11:33:53;24.67;;;7.43;;
78372;SDS011;67656;52.074;4.758;2023-03-09T11:38:55;25.50;;;7.70;;
78372;SDS011;67656;52.074;4.758;2023-03-09T11:43:59;26.20;;;8.00;;
78372;SDS011;67656;52.074;4.758;2023-03-09T11:49:10;24.50;;;7.20;;
78372;SDS011;67656;52.074;4.758;2023-03-09T11:54:18;21.70;;;6.93;;
78372;SDS011;67656;52.074;4.758;2023-03-09T12:04:32;22.87;;;7.60;;
78372;SDS011;67656;52.074;4.758;2023-03-09T12:15:05;21.03;;;7.10;;
78372;SDS011;67656;52.074;4.758;2023-03-09T12:20:25;22.48;;;7.90;;
78372;SDS011;67656;52.074;4.758;2023-03-09T12:25:32;26.90;;;7.47;;
78372;SDS011;67656;52.074;4.758;2023-03-09T12:30:36;22.57;;;7.10;;
78372;SDS011;67656;52.074;4.758;2023-03-09T12:40:53;23.97;;;7.87;;
78372;SDS011;67656;52.074;4.758;2023-03-09T12:45:53;27.20;;;9.20;;
78372;SDS011;67656;52.074;4.758;2023-03-09T12:50:58;22.57;;;7.57;;
78372;SDS011;67656;52.074;4.758;2023-03-09T12:56:17;27.17;;;7.67;;
78372;SDS011;67656;52.074;4.758;2023-03-09T13:11:37;28.73;;;7.97;;
78372;SDS011;67656;52.074;4.758;2023-03-09T13:32:28;24.17;;;6.83;;
78372;SDS011;67656;52.074;4.758;2023-03-09T13:37:49;22.87;;;6.80;;
78372;SDS011;67656;52.074;4.758;2023-03-09T13:42:53;24.60;;;6.75;;
78372;SDS011;67656;52.074;4.758;2023-03-09T13:47:57;23.70;;;6.40;;
78372;SDS011;67656;52.074;4.758;2023-03-09T13:53:03;21.23;;;6.70;;
78372;SDS011;67656;52.074;4.758;2023-03-09T13:58:27;22.00;;;6.63;;
78372;SDS011;67656;52.074;4.758;2023-03-09T14:03:29;25.43;;;7.60;;
78372;SDS011;67656;52.074;4.758;2023-03-09T14:08:40;18.93;;;6.60;;
78372;SDS011;67656;52.074;4.758;2023-03-09T14:13:45;19.17;;;6.17;;
78372;SDS011;67656;52.074;4.758;2023-03-09T14:18:54;21.30;;;6.07;;
78372;SDS011;67656;52.074;4.758;2023-03-09T14:34:29;20.77;;;6.10;;
78372;SDS011;67656;52.074;4.758;2023-03-09T14:39:33;17.40;;;5.50;;
78372;SDS011;67656;52.074;4.758;2023-03-09T14:44:39;19.17;;;6.23;;
78372;SDS011;67656;52.074;4.758;2023-03-09T14:49:41;23.03;;;6.30;;
78372;SDS011;67656;52.074;4.758;2023-03-09T14:54:45;14.73;;;5.90;;
78372;SDS011;67656;52.074;4.758;2023-03-09T14:59:59;18.20;;;5.85;;
78372;SDS011;67656;52.074;4.758;2023-03-09T15:05:00;18.77;;;6.25;;
78372;SDS011;67656;52.074;4.758;2023-03-09T15:10:00;19.90;;;6.07;;
78372;SDS011;67656;52.074;4.758;2023-03-09T15:15:00;18.80;;;6.25;;
78372;SDS011;67656;52.074;4.758;2023-03-09T15:20:01;22.03;;;6.00;;
78372;SDS011;67656;52.074;4.758;2023-03-09T15:25:01;15.60;;;5.23;;
78372;SDS011;67656;52.074;4.758;2023-03-09T15:30:02;16.53;;;4.93;;
78372;SDS011;67656;52.074;4.758;2023-03-09T15:35:02;18.57;;;5.80;;
78372;SDS011;67656;52.074;4.758;2023-03-09T15:40:03;21.50;;;6.40;;
78372;SDS011;67656;52.074;4.758;2023-03-09T15:45:04;19.00;;;6.07;;
78372;SDS011;67656;52.074;4.758;2023-03-09T15:50:07;18.63;;;5.37;;
78372;SDS011;67656;52.074;4.758;2023-03-09T15:55:08;18.67;;;5.30;;
78372;SDS011;67656;52.074;4.758;2023-03-09T16:00:10;20.20;;;5.77;;
78372;SDS011;67656;52.074;4.758;2023-03-09T16:05:12;17.83;;;5.37;;
78372;SDS011;67656;52.074;4.758;2023-03-09T16:10:12;15.43;;;4.88;;
78372;SDS011;67656;52.074;4.758;2023-03-09T16:15:12;17.85;;;4.38;;
78372;SDS011;67656;52.074;4.758;2023-03-09T16:20:13;17.13;;;5.30;;
78372;SDS011;67656;52.074;4.758;2023-03-09T16:25:15;10.67;;;4.07;;
78372;SDS011;67656;52.074;4.758;2023-03-09T16:30:16;13.63;;;4.60;;
78372;SDS011;67656;52.074;4.758;2023-03-09T16:35:17;11.43;;;4.03;;
78372;SDS011;67656;52.074;4.758;2023-03-09T16:40:18;12.43;;;3.90;;
78372;SDS011;67656;52.074;4.758;2023-03-09T16:45:20;9.20;;;3.57;;
78372;SDS011;67656;52.074;4.758;2023-03-09T16:50:21;12.37;;;3.97;;
78372;SDS011;67656;52.074;4.758;2023-03-09T16:55:22;11.77;;;4.77;;
78372;SDS011;67656;52.074;4.758;2023-03-09T17:00:23;9.80;;;3.83;;
78372;SDS011;67656;52.074;4.758;2023-03-09T17:05:23;9.20;;;3.27;;
78372;SDS011;67656;52.074;4.758;2023-03-09T17:10:23;10.13;;;3.60;;
78372;SDS011;67656;52.074;4.758;2023-03-09T17:15:24;9.47;;;3.37;;
78372;SDS011;67656;52.074;4.758;2023-03-09T17:20:24;8.85;;;3.33;;
78372;SDS011;67656;52.074;4.758;2023-03-09T17:25:25;11.57;;;4.20;;
78372;SDS011;67656;52.074;4.758;2023-03-09T17:30:26;11.03;;;3.57;;
78372;SDS011;67656;52.074;4.758;2023-03-09T17:35:26;9.43;;;3.60;;
78372;SDS011;67656;52.074;4.758;2023-03-09T17:40:26;9.52;;;3.53;;
78372;SDS011;67656;52.074;4.758;2023-03-09T17:45:27;12.83;;;4.87;;
78372;SDS011;67656;52.074;4.758;2023-03-09T17:50:27;13.82;;;5.00;;
78372;SDS011;67656;52.074;4.758;2023-03-09T17:55:27;9.73;;;3.70;;
78372;SDS011;67656;52.074;4.758;2023-03-09T18:00:28;10.33;;;4.17;;
78372;SDS011;67656;52.074;4.758;2023-03-09T18:05:28;12.98;;;4.05;;
78372;SDS011;67656;52.074;4.758;2023-03-09T18:10:31;9.57;;;3.83;;
78372;SDS011;67656;52.074;4.758;2023-03-09T18:15:31;13.07;;;4.37;;
78372;SDS011;67656;52.074;4.758;2023-03-09T18:20:32;12.27;;;3.67;;
78372;SDS011;67656;52.074;4.758;2023-03-09T18:25:32;9.97;;;4.13;;
78372;SDS011;67656;52.074;4.758;2023-03-09T18:30:32;13.73;;;4.60;;
78372;SDS011;67656;52.074;4.758;2023-03-09T18:35:33;12.95;;;3.97;;
78372;SDS011;67656;52.074;4.758;2023-03-09T18:40:33;13.75;;;5.95;;
78372;SDS011;67656;52.074;4.758;2023-03-09T18:45:33;11.65;;;4.97;;
78372;SDS011;67656;52.074;4.758;2023-03-09T18:50:34;9.97;;;4.27;;
78372;SDS011;67656;52.074;4.758;2023-03-09T18:55:37;11.23;;;5.18;;
78372;SDS011;67656;52.074;4.758;2023-03-09T19:00:37;10.07;;;4.37;;
78372;SDS011;67656;52.074;4.758;2023-03-09T19:05:38;7.57;;;3.28;;
78372;SDS011;67656;52.074;4.758;2023-03-09T19:10:39;10.70;;;4.43;;
78372;SDS011;67656;52.074;4.758;2023-03-09T19:15:40;12.03;;;4.00;;
78372;SDS011;67656;52.074;4.758;2023-03-09T19:20:40;7.47;;;3.40;;
78372;SDS011;67656;52.074;4.758;2023-03-09T19:25:41;12.77;;;4.27;;
78372;SDS011;67656;52.074;4.758;2023-03-09T19:30:41;10.13;;;4.07;;
78372;SDS011;67656;52.074;4.758;2023-03-09T19:35:41;8.00;;;3.67;;
78372;SDS011;67656;52.074;4.758;2023-03-09T19:40:42;7.63;;;3.67;;
78372;SDS011;67656;52.074;4.758;2023-03-09T19:45:42;11.60;;;4.22;;
78372;SDS011;67656;52.074;4.758;2023-03-09T19:50:42;7.57;;;3.60;;
78372;SDS011;67656;52.074;4.758;2023-03-09T19:55:43;7.20;;;3.80;;
78372;SDS011;67656;52.074;4.758;2023-03-09T20:00:43;7.57;;;3.53;;
78372;SDS011;67656;52.074;4.758;2023-03-09T20:05:43;8.77;;;4.07;;
78372;SDS011;67656;52.074;4.758;2023-03-09T20:10:43;10.32;;;4.05;;
78372;SDS011;67656;52.074;4.758;2023-03-09T20:15:44;8.73;;;3.45;;
78372;SDS011;67656;52.074;4.758;2023-03-09T20:20:44;9.05;;;4.45;;
78372;SDS011;67656;52.074;4.758;2023-03-09T20:25:44;9.85;;;3.78;;
78372;SDS011;67656;52.074;4.758;2023-03-09T20:30:45;9.60;;;3.80;;
78372;SDS011;67656;52.074;4.758;2023-03-09T20:35:46;8.27;;;3.33;;
78372;SDS011;67656;52.074;4.758;2023-03-09T20:40:49;8.95;;;3.75;;
78372;SDS011;67656;52.074;4.758;2023-03-09T20:45:50;10.30;;;4.50;;
78372;SDS011;67656;52.074;4.758;2023-03-09T20:55:55;10.27;;;4.07;;
78372;SDS011;67656;52.074;4.758;2023-03-09T21:00:55;10.93;;;4.87;;
78372;SDS011;67656;52.074;4.758;2023-03-09T21:05:55;11.38;;;4.43;;
78372;SDS011;67656;52.074;4.758;2023-03-09T21:10:56;10.50;;;4.47;;
78372;SDS011;67656;52.074;4.758;2023-03-09T21:15:56;10.57;;;4.37;;
78372;SDS011;67656;52.074;4.758;2023-03-09T21:20:56;11.63;;;4.78;;
78372;SDS011;67656;52.074;4.758;2023-03-09T21:26:04;12.05;;;4.38;;
78372;SDS011;67656;52.074;4.758;2023-03-09T21:31:07;9.17;;;4.10;;
78372;SDS011;67656;52.074;4.758;2023-03-09T21:36:08;10.73;;;4.53;;
78372;SDS011;67656;52.074;4.758;2023-03-09T21:41:09;13.53;;;4.97;;
78372;SDS011;67656;52.074;4.758;2023-03-09T21:46:10;10.20;;;4.60;;
78372;SDS011;67656;52.074;4.758;2023-03-09T21:51:11;10.73;;;4.70;;
78372;SDS011;67656;52.074;4.758;2023-03-09T21:56:11;11.63;;;4.80;;
78372;SDS011;67656;52.074;4.758;2023-03-09T22:01:13;13.38;;;5.22;;
78372;SDS011;67656;52.074;4.758;2023-03-09T22:06:16;12.27;;;5.23;;
78372;SDS011;67656;52.074;4.758;2023-03-09T22:11:21;12.50;;;4.97;;
78372;SDS011;67656;52.074;4.758;2023-03-09T22:16:23;9.40;;;4.53;;
78372;SDS011;67656;52.074;4.758;2023-03-09T22:21:27;10.13;;;4.17;;
78372;SDS011;67656;52.074;4.758;2023-03-09T22:26:28;7.77;;;3.73;;
78372;SDS011;67656;52.074;4.758;2023-03-09T22:31:29;12.30;;;4.37;;
78372;SDS011;67656;52.074;4.758;2023-03-09T22:36:30;8.10;;;3.63;;
78372;SDS011;67656;52.074;4.758;2023-03-09T22:41:32;8.30;;;3.47;;
78372;SDS011;67656;52.074;4.758;2023-03-09T22:46:32;8.53;;;3.47;;
78372;SDS011;67656;52.074;4.758;2023-03-09T22:51:32;12.80;;;4.55;;
78372;SDS011;67656;52.074;4.758;2023-03-09T22:56:33;13.70;;;4.57;;
78372;SDS011;67656;52.074;4.758;2023-03-09T23:01:33;11.47;;;4.53;;
78372;SDS011;67656;52.074;4.758;2023-03-09T23:06:33;10.93;;;4.30;;
78372;SDS011;67656;52.074;4.758;2023-03-09T23:11:34;11.80;;;3.80;;
78372;SDS011;67656;52.074;4.758;2023-03-09T23:16:37;11.23;;;4.03;;
78372;SDS011;67656;52.074;4.758;2023-03-09T23:21:37;10.60;;;4.03;;
78372;SDS011;67656;52.074;4.758;2023-03-09T23:26:38;10.50;;;3.87;;
78372;SDS011;67656;52.074;4.758;2023-03-09T23:31:38;10.63;;;4.35;;
78372;SDS011;67656;52.074;4.758;2023-03-09T23:36:38;12.50;;;4.40;;
78372;SDS011;67656;52.074;4.758;2023-03-09T23:41:39;11.40;;;3.60;;
78372;SDS011;67656;52.074;4.758;2023-03-09T23:46:39;11.18;;;4.03;;
78372;SDS011;67656;52.074;4.758;2023-03-09T23:51:39;11.32;;;4.50;;
78372;SDS011;67656;52.074;4.758;2023-03-09T23:56:39;9.73;;;4.07;;
